Woodville, New York
Current Conditions -  °F | °C
As of 3:56 PM on Saturday 20 Dec 2014 (Local Time) from KART Reporting Station
Clear Clear  
Wind Chill: 23°   Ceiling: Unl
Heat Index: 29°   Visibility: 10mi
Dew Point: 16°   Wind: 6mph
Humidity: 58%   Direction: 70°ENE
Pressure: 30.26"   Gusts: NA
Location:  43.8534°N, 76.251°W
Report Text: KART 202056Z AUTO 07005KT 10SM CLR M02/M09 A3026 RMK AO2 SLP254 T10171089 56011
Loading
Personal Weather Stations






























Interactive Weather Map New forecast layout! Learn more

10-Day Weather Forecast

Advertisements
Track Severe Weather on mobile